Time;durP1;ratioP1;P1;durP2;ratioP2;P2;SDS_P1;SDS_P2;PMS_P1;PMS_P2;Temp;Humidity;BMP_temperature;BMP_pressure;BME280_temperature;BME280_humidity;BME280_pressure;Samples;Min_cycle;Max_cycle;Signal;HPM_P1;HPM_P2
2021/08/14 00:00:19;;;;;;;13.93;9.50;;;14.10;99.90;;;;;;4974346;28;20106;-68
2021/08/14 00:02:46;;;;;;;13.60;9.38;;;14.20;99.90;;;;;;4973077;28;20429;-68
2021/08/14 00:05:14;;;;;;;11.38;9.95;;;14.30;99.90;;;;;;4974437;28;20027;-67
2021/08/14 00:07:41;;;;;;;11.75;10.55;;;14.30;99.90;;;;;;4972808;28;20498;-69
2021/08/14 00:10:09;;;;;;;10.95;9.25;;;14.50;99.90;;;;;;4973633;28;20035;-69
2021/08/14 00:12:36;;;;;;;10.73;9.63;;;14.50;99.90;;;;;;4973962;28;20023;-69
2021/08/14 00:15:04;;;;;;;10.15;9.07;;;;;;;;;;4973897;28;20452;-69
2021/08/14 00:17:31;;;;;;;10.77;8.45;;;14.80;99.90;;;;;;4974216;28;20050;-70
2021/08/14 00:19:59;;;;;;;11.23;8.98;;;14.90;99.90;;;;;;4972743;28;20093;-69
2021/08/14 00:22:26;;;;;;;11.63;9.75;;;15.00;99.90;;;;;;4972841;28;20031;-69
2021/08/14 00:24:53;;;;;;;10.48;8.98;;;15.10;99.90;;;;;;4974154;28;20019;-69
2021/08/14 00:27:21;;;;;;;12.07;9.85;;;15.20;99.90;;;;;;4974134;28;20472;-69
2021/08/14 00:29:48;;;;;;;13.77;10.77;;;15.50;99.90;;;;;;4974099;28;20474;-69
2021/08/14 00:32:15;;;;;;;9.50;7.70;;;;;;;;;;4973821;28;20102;-68
2021/08/14 00:34:42;;;;;;;11.10;9.60;;;;;;;;;;4975512;28;20391;-68
2021/08/14 00:37:09;;;;;;;10.10;8.15;;;;;;;;;;4973830;28;20026;-68
2021/08/14 00:39:37;;;;;;;10.80;8.40;;;16.10;99.90;;;;;;4972683;28;20401;-69
2021/08/14 00:42:05;;;;;;;8.85;7.72;;;16.20;99.90;;;;;;4973974;28;20030;-69
2021/08/14 00:44:34;;;;;;;8.38;6.93;;;16.20;99.90;;;;;;4972616;28;20026;-69
2021/08/14 00:47:05;;;;;;;11.48;8.65;;;16.20;99.90;;;;;;4973912;28;20031;-68
2021/08/14 00:49:33;;;;;;;9.25;7.22;;;16.30;99.00;;;;;;4972440;28;20031;-68
2021/08/14 00:52:01;;;;;;;5.90;5.10;;;16.40;99.10;;;;;;4973833;28;20027;-69
2021/08/14 00:54:29;;;;;;;7.80;6.80;;;16.30;99.20;;;;;;4973806;28;20053;-68
2021/08/14 00:56:57;;;;;;;6.63;6.00;;;16.30;99.00;;;;;;4973653;28;20098;-68
2021/08/14 00:59:30;;;;;;;7.53;6.78;;;16.40;99.20;;;;;;4972327;28;20464;-68
2021/08/14 01:01:58;;;;;;;7.25;6.30;;;16.50;99.20;;;;;;4973649;28;20022;-69
2021/08/14 01:04:25;;;;;;;7.38;6.50;;;16.60;99.00;;;;;;4972429;28;20035;-68
2021/08/14 01:06:52;;;;;;;9.10;6.53;;;16.80;99.00;;;;;;4973706;28;20034;-69
2021/08/14 01:09:20;;;;;;;7.15;5.43;;;16.80;99.30;;;;;;4973817;28;20030;-70
2021/08/14 01:11:49;;;;;;;6.68;5.53;;;16.80;99.10;;;;;;4972124;28;20023;-71
2021/08/14 01:14:16;;;;;;;7.95;6.00;;;17.00;98.90;;;;;;4973228;28;20077;-71
2021/08/14 01:16:44;;;;;;;5.90;5.30;;;17.00;99.00;;;;;;4973728;28;20113;-72
2021/08/14 01:19:11;;;;;;;9.40;6.90;;;17.20;98.70;;;;;;4973664;28;20029;-71
2021/08/14 01:21:46;;;;;;;9.30;6.90;;;17.40;98.40;;;;;;4974033;28;20050;-70
2021/08/14 01:24:13;;;;;;;7.35;6.18;;;17.30;97.70;;;;;;4975939;28;20027;-70
2021/08/14 01:26:47;;;;;;;8.27;6.90;;;17.40;98.20;;;;;;4977269;28;20054;-70
2021/08/14 01:29:15;;;;;;;8.20;6.45;;;17.30;98.10;;;;;;4977002;28;20050;-70
2021/08/14 01:31:43;;;;;;;7.90;6.30;;;17.20;98.10;;;;;;4977008;28;20054;-71
2021/08/14 01:34:11;;;;;;;7.32;6.60;;;17.30;98.20;;;;;;4975593;28;20026;-71
2021/08/14 01:36:39;;;;;;;6.93;6.25;;;17.40;97.90;;;;;;4976757;28;20102;-71
2021/08/14 01:39:06;;;;;;;7.93;6.53;;;17.50;97.90;;;;;;4976897;28;20023;-71
2021/08/14 01:41:33;;;;;;;7.63;6.63;;;17.50;98.10;;;;;;4976764;28;20018;-71
2021/08/14 01:44:06;;;;;;;7.57;6.15;;;17.70;97.40;;;;;;4976674;28;20069;-71
2021/08/14 01:46:36;;;;;;;7.57;6.75;;;17.70;97.60;;;;;;4976947;28;20023;-71
2021/08/14 01:49:05;;;;;;;9.35;7.60;;;17.80;97.30;;;;;;4975171;28;20019;-71
2021/08/14 01:51:32;;;;;;;10.05;8.63;;;17.80;97.10;;;;;;4975469;28;20023;-71
2021/08/14 01:54:01;;;;;;;10.35;8.45;;;17.80;97.30;;;;;;4975206;28;20534;-71
2021/08/14 01:56:29;;;;;;;9.77;8.18;;;17.90;97.20;;;;;;4976482;28;20015;-70
2021/08/14 01:58:57;;;;;;;9.77;8.05;;;17.80;97.50;;;;;;4976468;28;20026;-71
2021/08/14 02:01:25;;;;;;;12.75;9.10;;;17.90;97.30;;;;;;4976443;28;20031;-71
2021/08/14 02:03:52;;;;;;;8.60;7.72;;;17.90;97.10;;;;;;4975007;28;20122;-70
2021/08/14 02:06:22;;;;;;;9.60;7.30;;;18.00;97.60;;;;;;4976496;28;20109;-70
2021/08/14 02:08:49;;;;;;;8.48;6.60;;;18.10;97.20;;;;;;4976466;28;20082;-70
2021/08/14 02:11:19;;;;;;;9.25;7.20;;;18.20;97.50;;;;;;4974784;28;20507;-70
2021/08/14 02:13:49;;;;;;;10.15;7.90;;;18.40;97.40;;;;;;4976310;28;20029;-70
2021/08/14 02:16:16;;;;;;;9.65;8.00;;;18.50;97.30;;;;;;4976124;28;20046;-70
2021/08/14 02:18:44;;;;;;;11.52;8.57;;;18.70;97.40;;;;;;4976231;28;20160;-71
2021/08/14 02:21:11;;;;;;;7.25;5.80;;;18.80;96.60;;;;;;4976071;28;20030;-70
2021/08/14 02:23:40;;;;;;;7.50;5.53;;;18.90;96.80;;;;;;4976038;28;20040;-70
2021/08/14 02:26:08;;;;;;;12.27;8.80;;;18.80;96.80;;;;;;4976109;28;20038;-71
2021/08/14 02:28:36;;;;;;;10.02;8.23;;;18.90;96.40;;;;;;4975911;28;20400;-71
2021/08/14 02:31:06;;;;;;;9.23;5.65;;;18.90;96.50;;;;;;4974756;28;20081;-71
2021/08/14 02:33:34;;;;;;;9.07;7.53;;;19.20;96.60;;;;;;4973984;28;20023;-72
2021/08/14 02:36:02;;;;;;;8.27;6.40;;;19.30;97.10;;;;;;4975776;28;20039;-72
2021/08/14 02:38:30;;;;;;;9.85;6.85;;;19.40;97.10;;;;;;4975822;28;20015;-71
2021/08/14 02:40:57;;;;;;;9.05;8.23;;;19.50;97.30;;;;;;4974495;28;20075;-71
2021/08/14 02:43:25;;;;;;;12.48;10.10;;;19.60;99.90;;;;;;4974242;28;20030;-71
2021/08/14 02:45:52;;;;;;;13.38;10.35;;;19.70;97.80;;;;;;4975664;28;20055;-71
2021/08/14 02:48:20;;;;;;;13.00;11.02;;;19.60;97.40;;;;;;4975695;28;20027;-72
2021/08/14 02:50:48;;;;;;;11.25;9.43;;;19.50;97.90;;;;;;4974207;28;20079;-71
2021/08/14 02:53:15;;;;;;;11.63;10.43;;;19.30;97.70;;;;;;4974166;28;20022;-71
2021/08/14 02:55:43;;;;;;;10.60;9.38;;;19.30;98.20;;;;;;4973970;28;20050;-71
2021/08/14 02:58:10;;;;;;;11.52;7.05;;;19.30;97.60;;;;;;4974189;28;20027;-71
2021/08/14 03:00:38;;;;;;;8.23;5.85;;;19.50;98.20;;;;;;4975272;28;20313;-72
2021/08/14 03:03:06;;;;;;;6.07;5.47;;;19.60;98.70;;;;;;4975276;28;20495;-71
2021/08/14 03:05:33;;;;;;;7.35;4.43;;;19.80;98.90;;;;;;4974052;28;20448;-71
2021/08/14 03:08:00;;;;;;;8.32;4.60;;;;;;;;;;4974028;28;20441;-73
2021/08/14 03:10:27;;;;;;;6.20;4.32;;;;;;;;;;4974000;28;20027;-73
2021/08/14 03:12:55;;;;;;;5.38;4.00;;;;;;;;;;4975093;28;20491;-72
2021/08/14 03:15:22;;;;;;;6.53;4.05;;;;;;;;;;4974960;28;20519;-72
2021/08/14 03:17:53;;;;;;;5.20;3.90;;;;;;;;;;4973709;28;20053;-71
2021/08/14 03:20:20;;;;;;;4.07;3.60;;;;;;;;;;4975148;28;20027;-72
2021/08/14 03:22:47;;;;;;;4.40;3.97;;;;;;;;;;4973816;28;20444;-71
2021/08/14 03:25:15;;;;;;;4.68;3.80;;;;;;;;;;4973716;28;20380;-72
2021/08/14 03:27:42;;;;;;;3.83;3.50;;;;;;;;;;4974980;28;20480;-71
2021/08/14 03:30:09;;;;;;;5.70;3.50;;;;;;;;;;4973511;28;20027;-72
2021/08/14 03:32:36;;;;;;;3.72;3.40;;;;;;;;;;4974882;28;20042;-71
2021/08/14 03:35:03;;;;;;;5.05;3.30;;;;;;;;;;4975044;28;20027;-71
2021/08/14 03:37:31;;;;;;;4.93;3.83;;;;;;;;;;4973822;28;20387;-71
2021/08/14 03:39:58;;;;;;;4.63;3.10;;;;;;;;;;4974748;28;20054;-71
2021/08/14 03:42:25;;;;;;;3.75;3.00;;;;;;;;;;4974741;28;20133;-71
2021/08/14 03:44:53;;;;;;;4.57;3.28;;;;;;;;;;4974193;28;20026;-72
2021/08/14 03:47:20;;;;;;;5.88;3.30;;;;;;;;;;4972820;28;20033;-70
2021/08/14 03:49:47;;;;;;;4.53;2.92;;;;;;;;;;4974549;28;20037;-71
2021/08/14 03:52:14;;;;;;;4.38;3.03;;;;;;;;;;4973297;28;20038;-71
2021/08/14 03:54:46;;;;;;;3.45;2.80;;;;;;;;;;4973361;28;20352;-72
2021/08/14 03:57:14;;;;;;;3.70;3.28;;;;;;;;;;4974616;28;20027;-71
2021/08/14 03:59:41;;;;;;;4.78;3.15;;;;;;;;;;4973192;28;20062;-71
2021/08/14 04:02:08;;;;;;;4.60;3.40;;;;;;;;;;4973311;28;20039;-71
2021/08/14 04:04:35;;;;;;;3.85;3.42;;;;;;;;;;4972991;28;20031;-70
2021/08/14 04:07:02;;;;;;;3.50;3.20;;;;;;;;;;4974452;28;20027;-70
2021/08/14 04:09:29;;;;;;;3.65;3.22;;;;;;;;;;4974248;28;20031;-70
2021/08/14 04:11:56;;;;;;;3.80;3.17;;;;;;;;;;4974131;28;20475;-71
2021/08/14 04:14:23;;;;;;;4.05;3.25;;;;;;;;;;4974023;28;20071;-71
2021/08/14 04:16:51;;;;;;;6.70;3.97;;;;;;;;;;4974181;28;20027;-70
2021/08/14 04:19:18;;;;;;;5.47;3.40;;;;;;;;;;4972912;28;20344;-71
2021/08/14 04:21:45;;;;;;;3.95;3.53;;;;;;;;;;4972742;28;20023;-71
2021/08/14 04:24:12;;;;;;;4.43;3.08;;;;;;;;;;4973977;28;20459;-70
2021/08/14 04:26:39;;;;;;;3.97;3.60;;;;;;;;;;4974340;28;20447;-71
2021/08/14 04:29:07;;;;;;;5.65;3.70;;;;;;;;;;4974002;28;20094;-72
2021/08/14 04:31:34;;;;;;;5.38;3.80;;;;;;;;;;4973811;28;20041;-71
2021/08/14 04:34:01;;;;;;;6.20;3.90;;;;;;;;;;4972736;28;20027;-71
2021/08/14 04:36:28;;;;;;;5.45;3.45;;;;;;;;;;4973851;28;20031;-71
2021/08/14 04:38:55;;;;;;;5.15;3.95;;;;;;;;;;4973890;28;20019;-71
2021/08/14 04:41:22;;;;;;;4.07;3.65;;;;;;;;;;4972463;28;20058;-71
2021/08/14 04:43:49;;;;;;;6.70;3.80;;;;;;;;;;4972285;28;20082;-70
2021/08/14 04:46:16;;;;;;;4.75;3.65;;;;;;;;;;4974154;28;20023;-71
2021/08/14 04:48:44;;;;;;;4.10;3.80;;;;;;;;;;4974339;28;20051;-70
2021/08/14 04:51:11;;;;;;;4.22;3.67;;;;;;;;;;4973505;28;20023;-69
2021/08/14 04:53:38;;;;;;;9.77;3.70;;;;;;;;;;4972166;28;20019;-71
2021/08/14 04:56:05;;;;;;;5.40;3.50;;;;;;;;;;4973382;28;20081;-68
2021/08/14 04:58:32;;;;;;;5.60;3.63;;;;;;;;;;4977142;28;20023;-70
2021/08/14 05:00:59;;;;;;;4.43;3.70;;;;;;;;;;4975978;28;20343;-69
2021/08/14 05:03:27;;;;;;;4.05;3.42;;;;;;;;;;4977288;28;20046;-70
2021/08/14 05:05:55;;;;;;;4.45;4.05;;;;;;;;;;4977351;28;20062;-69
2021/08/14 05:08:23;;;;;;;4.47;4.07;;;;;;;;;;4975985;28;20115;-69
2021/08/14 05:10:50;;;;;;;6.18;4.20;;;;;;;;;;4975949;28;20023;-69
2021/08/14 05:13:17;;;;;;;4.68;3.85;;;;;;;;;;4975865;28;20033;-68
2021/08/14 05:15:44;;;;;;;6.20;4.40;;;;;;;;;;4977040;28;20050;-70
2021/08/14 05:18:11;;;;;;;6.80;4.03;;;;;;;;;;4977196;28;20019;-69
2021/08/14 05:20:39;;;;;;;5.10;3.78;;;;;;;;;;4977254;28;20035;-70
2021/08/14 05:23:06;;;;;;;6.47;4.40;;;;;;;;;;4975736;28;20031;-71
2021/08/14 05:25:33;;;;;;;5.30;4.70;;;;;;;;;;4977142;28;20027;-69
2021/08/14 05:28:00;;;;;;;7.40;4.40;;;;;;;;;;4976973;28;20051;-70
2021/08/14 05:30:27;;;;;;;5.28;4.47;;;;;;;;;;4976962;28;20038;-69
2021/08/14 05:32:54;;;;;;;6.45;4.55;;;;;;;;;;4975608;28;20026;-71
2021/08/14 05:35:22;;;;;;;5.45;4.60;;;;;;;;;;4975532;28;20027;-69
2021/08/14 05:37:49;;;;;;;5.18;4.78;;;;;;;;;;4976918;28;20025;-70
2021/08/14 05:40:16;;;;;;;4.72;4.30;;;;;;;;;;4976863;28;20031;-70
2021/08/14 05:42:43;;;;;;;5.55;4.25;;;;;;;;;;4976768;28;20037;-69
2021/08/14 05:45:11;;;;;;;6.03;4.32;;;;;;;;;;4976785;28;20146;-70
2021/08/14 05:47:38;;;;;;;5.28;4.38;;;;;;;;;;4976670;28;20023;-70
2021/08/14 05:50:05;;;;;;;6.30;4.45;;;;;;;;;;4976935;28;20023;-69
2021/08/14 05:52:32;;;;;;;5.10;4.13;;;;;;;;;;4975686;28;20420;-69
2021/08/14 05:55:00;;;;;;;4.57;4.13;;;;;;;;;;4976693;28;20027;-70
2021/08/14 05:57:27;;;;;;;5.43;4.65;;;;;;;;;;4976430;28;20081;-69
2021/08/14 05:59:54;;;;;;;4.40;4.00;;;;;;;;;;4976388;28;20110;-68
2021/08/14 06:02:21;;;;;;;5.07;4.57;;;;;;;;;;4976185;28;20041;-69
2021/08/14 06:04:48;;;;;;;5.07;4.30;;;;;;;;;;4976432;28;20027;-69
2021/08/14 06:07:15;;;;;;;5.85;4.40;;;;;;;;;;4976164;28;20027;-69
2021/08/14 06:09:42;;;;;;;4.80;4.35;;;;;;;;;;4975135;28;20515;-70
2021/08/14 06:12:10;;;;;;;7.88;4.30;;;;;;;;;;4976159;28;20058;-70
2021/08/14 06:14:37;;;;;;;4.25;3.92;;;;;;;;;;4976001;28;20495;-70
2021/08/14 06:17:05;;;;;;;7.85;4.25;;;;;;;;;;4976046;28;20073;-70
2021/08/14 06:19:32;;;;;;;4.63;4.13;;;17.10;99.90;;;;;;4976146;28;20023;-70
2021/08/14 06:22:00;;;;;;;4.70;4.10;;;17.00;99.90;;;;;;4975803;28;20096;-70
2021/08/14 06:24:27;;;;;;;5.03;3.95;;;17.00;99.90;;;;;;4975867;28;20026;-69
2021/08/14 06:26:54;;;;;;;4.68;4.20;;;16.90;96.90;;;;;;4976018;28;20436;-71
2021/08/14 06:29:22;;;;;;;4.45;4.05;;;16.80;97.30;;;;;;4975714;28;20027;-70
2021/08/14 06:31:49;;;;;;;5.07;4.47;;;16.80;97.70;;;;;;4974553;28;20499;-69
2021/08/14 06:34:16;;;;;;;4.93;4.53;;;16.70;98.00;;;;;;4974483;28;20057;-70
2021/08/14 06:36:44;;;;;;;8.38;4.78;;;16.60;98.10;;;;;;4975645;28;20027;-69
2021/08/14 06:39:11;;;;;;;4.38;3.97;;;16.50;97.70;;;;;;4975858;28;20399;-68
2021/08/14 06:41:38;;;;;;;5.53;4.20;;;16.50;97.40;;;;;;4974587;28;20403;-68
2021/08/14 06:44:05;;;;;;;4.80;4.38;;;16.50;97.00;;;;;;4976456;28;20120;-69
2021/08/14 06:46:34;;;;;;;4.72;4.10;;;16.40;97.10;;;;;;4975137;28;20054;-68
2021/08/14 06:49:03;;;;;;;4.93;4.47;;;16.30;97.60;;;;;;4975825;28;20496;-69
2021/08/14 06:51:33;;;;;;;7.95;5.75;;;16.30;97.70;;;;;;4974147;28;20026;-68
2021/08/14 06:54:01;;;;;;;7.20;6.47;;;16.20;98.20;;;;;;4975565;28;20022;-69
2021/08/14 06:56:28;;;;;;;6.25;5.60;;;16.10;98.30;;;;;;4975898;28;20051;-69
2021/08/14 06:58:55;;;;;;;7.97;6.25;;;16.10;98.40;;;;;;4974699;28;20022;-69
2021/08/14 07:01:23;;;;;;;8.05;4.55;;;15.90;98.50;;;;;;4975581;28;20488;-70
2021/08/14 07:03:50;;;;;;;7.30;4.60;;;15.80;98.60;;;;;;4975575;28;20158;-69
2021/08/14 07:06:25;;;;;;;4.50;3.88;;;15.80;98.80;;;;;;4975652;28;20050;-70
2021/08/14 07:08:53;;;;;;;4.45;3.92;;;15.70;98.90;;;;;;4975349;28;20022;-70
2021/08/14 07:11:22;;;;;;;4.35;3.95;;;15.70;99.40;;;;;;4973884;28;20030;-70
2021/08/14 07:13:50;;;;;;;5.75;4.15;;;15.60;99.50;;;;;;4973820;28;20054;-69
2021/08/14 07:16:19;;;;;;;4.55;3.95;;;15.50;99.70;;;;;;4975026;28;20118;-70
2021/08/14 07:18:47;;;;;;;4.95;4.43;;;15.40;99.90;;;;;;4975054;28;20021;-69
2021/08/14 07:21:15;;;;;;;4.88;4.32;;;15.40;99.90;;;;;;4974829;28;20491;-70
2021/08/14 07:23:42;;;;;;;5.75;4.75;;;;;;;;;;4973838;28;20480;-69
2021/08/14 07:26:09;;;;;;;4.88;4.47;;;;;;;;;;4974939;28;20030;-70
2021/08/14 07:28:36;;;;;;;5.70;4.68;;;;;;;;;;4974984;28;20105;-69
2021/08/14 07:31:04;;;;;;;5.57;4.55;;;;;;;;;;4974845;28;20101;-69
2021/08/14 07:33:31;;;;;;;5.50;4.85;;;;;;;;;;4975089;28;20023;-70
2021/08/14 07:35:59;;;;;;;5.80;5.00;;;;;;;;;;4973466;28;20034;-70
2021/08/14 07:38:26;;;;;;;6.15;4.40;;;;;;;;;;4974772;28;20042;-70
2021/08/14 07:40:53;;;;;;;7.28;4.65;;;;;;;;;;4974648;28;20134;-70
2021/08/14 07:43:20;;;;;;;7.85;4.55;;;;;;;;;;4974748;28;20109;-69
2021/08/14 07:45:47;;;;;;;4.90;4.40;;;;;;;;;;4974567;28;20058;-69
2021/08/14 07:48:14;;;;;;;6.32;4.20;;;;;;;;;;4973192;28;20491;-69
2021/08/14 07:50:42;;;;;;;6.55;4.80;;;;;;;;;;4974405;28;20023;-69
2021/08/14 07:53:09;;;;;;;4.72;4.32;;;;;;;;;;4974490;28;20019;-70
2021/08/14 07:55:36;;;;;;;7.82;5.05;;;;;;;;;;4974421;28;20098;-69
2021/08/14 07:58:13;;;;;;;5.90;4.90;;;;;;;;;;4974411;28;20019;-70
2021/08/14 08:00:40;;;;;;;6.57;4.68;;;;;;;;;;4973053;28;20511;-69
2021/08/14 08:03:08;;;;;;;11.57;5.70;;;;;;;;;;4974390;28;20041;-69
2021/08/14 08:05:36;;;;;;;9.93;8.38;;;;;;;;;;4974387;28;20034;-70
2021/08/14 08:08:04;;;;;;;7.00;5.47;;;;;;;;;;4974476;28;20034;-70
2021/08/14 08:10:31;;;;;;;7.03;5.28;;;;;;;;;;4974355;28;20034;-69
2021/08/14 08:12:59;;;;;;;6.65;5.32;;;;;;;;;;4974157;28;20023;-70
2021/08/14 08:15:26;;;;;;;7.22;6.50;;;;;;;;;;4972662;28;20436;-68
2021/08/14 08:17:54;;;;;;;8.77;6.97;;;14.00;99.90;;;;;;4974211;28;20037;-69
2021/08/14 08:20:22;;;;;;;8.20;7.32;;;13.90;99.90;;;;;;4974256;28;20106;-69
2021/08/14 08:22:50;;;;;;;8.13;7.25;;;13.90;99.90;;;;;;4974268;28;20031;-69
2021/08/14 08:25:21;;;;;;;8.70;7.78;;;13.90;99.90;;;;;;4974472;28;20089;-69
2021/08/14 08:27:51;;;;;;;9.38;8.10;;;13.90;99.90;;;;;;4974087;28;20027;-69
2021/08/14 08:30:20;;;;;;;8.85;8.00;;;13.80;99.90;;;;;;4973957;28;20057;-69
2021/08/14 08:32:48;;;;;;;10.10;9.00;;;13.80;99.90;;;;;;4972543;28;20090;-69
2021/08/14 08:35:15;;;;;;;12.98;11.15;;;13.80;99.90;;;;;;4973882;28;20029;-69
2021/08/14 08:37:43;;;;;;;11.80;10.57;;;13.70;99.90;;;;;;4972723;28;20031;-69
2021/08/14 08:40:11;;;;;;;9.82;8.82;;;13.70;99.90;;;;;;4972455;28;20492;-69
2021/08/14 08:42:39;;;;;;;8.48;7.70;;;13.70;99.90;;;;;;4972525;28;20031;-70
2021/08/14 08:45:07;;;;;;;11.40;9.73;;;13.70;99.90;;;;;;4973920;28;20097;-69
2021/08/14 08:47:39;;;;;;;9.23;8.30;;;13.70;99.90;;;;;;4973261;28;20137;-69
2021/08/14 08:50:09;;;;;;;9.90;8.90;;;13.60;99.90;;;;;;4972399;28;20166;-69
2021/08/14 08:52:37;;;;;;;9.43;8.52;;;13.60;99.90;;;;;;4972757;28;20460;-69
2021/08/14 08:55:05;;;;;;;8.98;8.07;;;13.60;99.90;;;;;;4973893;28;20066;-68
2021/08/14 08:57:33;;;;;;;9.57;8.57;;;13.50;99.90;;;;;;4972491;28;20106;-68
2021/08/14 09:00:00;;;;;;;8.98;7.43;;;13.50;99.90;;;;;;4973879;28;20019;-69
2021/08/14 09:02:30;;;;;;;7.20;6.57;;;13.50;99.90;;;;;;4972535;28;20034;-70
2021/08/14 09:05:19;;;;;;;9.32;7.93;;;13.40;99.90;;;;;;4972784;28;20369;-70
2021/08/14 09:07:49;;;;;;;8.95;7.30;;;13.40;99.90;;;;;;4973740;28;20391;-71
2021/08/14 09:10:24;;;;;;;8.93;7.68;;;13.30;99.90;;;;;;4973629;28;20497;-70
2021/08/14 09:12:52;;;;;;;11.82;9.10;;;13.30;99.90;;;;;;4973667;28;20106;-70
2021/08/14 09:15:32;;;;;;;12.93;9.88;;;13.20;99.90;;;;;;4973273;28;20054;-70
2021/08/14 09:18:04;;;;;;;11.10;10.00;;;13.20;99.90;;;;;;4973537;28;20096;-70
2021/08/14 09:20:36;;;;;;;13.50;11.93;;;13.20;99.90;;;;;;4973510;28;20027;-70
2021/08/14 09:23:06;;;;;;;12.20;11.00;;;13.20;99.90;;;;;;4972245;28;20035;-71
2021/08/14 09:25:42;;;;;;;13.15;10.88;;;13.20;99.90;;;;;;4972471;28;20085;-70
2021/08/14 09:28:10;;;;;;;15.95;10.43;;;13.10;99.90;;;;;;4973410;28;20045;-70
2021/08/14 09:30:45;;;;;;;12.43;11.13;;;13.10;99.90;;;;;;4973407;28;20372;-70
2021/08/14 09:33:15;;;;;;;13.20;11.07;;;13.10;99.90;;;;;;4972484;28;20045;-71
2021/08/14 09:35:44;;;;;;;14.82;11.52;;;13.10;99.90;;;;;;4973428;28;20019;-70
2021/08/14 09:38:14;;;;;;;26.52;20.15;;;13.10;99.90;;;;;;4973602;28;20479;-70
2021/08/14 09:40:47;;;;;;;16.40;14.30;;;13.00;99.90;;;;;;4972201;28;20077;-70
2021/08/14 09:43:35;;;;;;;14.75;13.18;;;13.00;99.90;;;;;;4974983;28;20089;-70
2021/08/14 09:46:03;;;;;;;17.30;15.45;;;13.00;99.90;;;;;;4977114;28;20439;-70
2021/08/14 09:48:31;;;;;;;18.23;15.40;;;12.90;99.90;;;;;;4976868;28;20030;-70
2021/08/14 09:50:59;;;;;;;19.65;17.63;;;13.00;99.90;;;;;;4975413;28;20023;-69
2021/08/14 09:53:29;;;;;;;17.55;15.85;;;12.90;99.90;;;;;;4975289;28;20065;-70
2021/08/14 09:56:09;;;;;;;;;;;12.80;99.90;;;;;;4975782;28;20110;-70
2021/08/14 09:58:38;;;;;;;20.65;18.45;;;12.70;99.90;;;;;;4976660;28;19981;-71
2021/08/14 10:01:08;;;;;;;21.73;19.20;;;12.70;99.90;;;;;;4976686;28;20019;-71
2021/08/14 10:03:36;;;;;;;20.17;17.98;;;12.60;99.90;;;;;;4975145;28;20392;-69
2021/08/14 10:06:04;;;;;;;18.92;16.23;;;12.70;99.90;;;;;;4976302;28;20056;-70
2021/08/14 10:08:32;;;;;;;17.73;15.38;;;12.60;99.90;;;;;;4974950;28;20114;-70
2021/08/14 10:10:59;;;;;;;15.32;13.73;;;12.60;99.90;;;;;;4976224;28;20026;-73
2021/08/14 10:13:29;;;;;;;14.65;13.13;;;12.60;99.90;;;;;;4976404;28;20049;-71
2021/08/14 10:15:57;;;;;;;14.50;12.88;;;12.50;99.90;;;;;;4976057;28;20039;-72
2021/08/14 10:18:24;;;;;;;13.48;12.25;;;12.50;99.90;;;;;;4976151;28;20372;-73
2021/08/14 10:20:51;;;;;;;15.55;12.50;;;12.60;99.90;;;;;;4976187;28;20023;-73
2021/08/14 10:23:24;;;;;;;13.38;12.07;;;12.50;99.90;;;;;;4974899;28;20122;-72
2021/08/14 10:26:04;;;;;;;13.70;12.50;;;12.50;99.90;;;;;;4974848;28;20484;-72
2021/08/14 10:28:53;;;;;;;13.73;12.52;;;12.60;99.90;;;;;;4974832;28;20497;-73
2021/08/14 10:31:35;;;;;;;15.30;12.50;;;12.50;99.90;;;;;;4976069;28;20035;-72
2021/08/14 10:34:12;;;;;;;13.65;12.30;;;12.50;99.90;;;;;;4974582;28;20027;-71
2021/08/14 10:36:44;;;;;;;15.93;12.52;;;12.50;99.90;;;;;;4975764;28;20031;-72
2021/08/14 10:39:27;;;;;;;13.40;11.88;;;12.50;99.90;;;;;;4974471;28;20114;-72
2021/08/14 10:42:02;;;;;;;14.65;12.48;;;12.50;99.90;;;;;;4974411;28;20022;-72
2021/08/14 10:44:46;;;;;;;14.95;13.48;;;12.50;99.90;;;;;;4974264;28;20022;-72
2021/08/14 10:47:40;;;;;;;13.80;12.48;;;12.40;99.90;;;;;;4975711;28;20023;-71
2021/08/14 10:50:07;;;;;;;14.43;12.90;;;12.40;99.90;;;;;;4974202;28;20023;-72
2021/08/14 10:52:37;;;;;;;13.93;12.65;;;12.40;99.90;;;;;;4975662;28;20030;-73
2021/08/14 10:55:08;;;;;;;14.68;13.20;;;12.30;99.90;;;;;;4973776;28;20038;-71
2021/08/14 10:57:48;;;;;;;15.13;13.73;;;12.30;99.90;;;;;;4974282;28;20034;-71
2021/08/14 11:00:17;;;;;;;16.20;14.50;;;12.30;99.90;;;;;;4975578;28;20058;-71
2021/08/14 11:03:05;;;;;;;15.82;14.25;;;12.20;99.90;;;;;;4974286;28;20113;-72
2021/08/14 11:05:33;;;;;;;16.65;15.00;;;12.20;99.90;;;;;;4974144;28;20127;-72
2021/08/14 11:08:02;;;;;;;17.25;15.30;;;12.20;99.90;;;;;;4975436;28;20023;-72
2021/08/14 11:10:35;;;;;;;17.55;15.85;;;12.20;99.90;;;;;;4975335;28;20030;-72
2021/08/14 11:13:03;;;;;;;17.73;15.93;;;12.20;99.90;;;;;;4973879;28;20030;-71
2021/08/14 11:15:39;;;;;;;18.55;16.63;;;12.20;99.90;;;;;;4975084;28;20054;-70
2021/08/14 11:18:07;;;;;;;19.05;17.05;;;12.10;99.90;;;;;;4973933;28;20029;-71
2021/08/14 11:20:43;;;;;;;18.73;16.92;;;12.10;99.90;;;;;;4975288;28;20430;-71
2021/08/14 11:23:29;;;;;;;18.33;16.67;;;12.10;99.90;;;;;;4975332;28;20026;-71
2021/08/14 11:25:57;;;;;;;17.92;16.02;;;12.10;99.90;;;;;;4975336;28;20023;-71
2021/08/14 11:28:26;;;;;;;18.80;16.88;;;12.10;99.90;;;;;;4973662;28;20035;-71
2021/08/14 11:31:05;;;;;;;18.35;16.52;;;12.00;99.90;;;;;;4973573;28;20407;-71
2021/08/14 11:33:32;;;;;;;19.70;17.63;;;12.10;99.90;;;;;;4973564;28;20365;-71
2021/08/14 11:36:04;;;;;;;19.67;17.75;;;12.00;99.90;;;;;;4974902;28;20014;-72
2021/08/14 11:38:49;;;;;;;19.60;17.80;;;12.00;99.90;;;;;;4974998;28;20022;-71
2021/08/14 11:41:21;;;;;;;22.48;16.88;;;12.00;99.90;;;;;;4974918;28;20391;-72
2021/08/14 11:43:48;;;;;;;19.00;17.05;;;12.00;99.90;;;;;;4973454;28;20506;-71
2021/08/14 11:46:15;;;;;;;18.60;16.90;;;12.00;99.90;;;;;;4974839;28;20029;-71
2021/08/14 11:48:45;;;;;;;17.77;16.25;;;12.00;99.90;;;;;;4975228;28;20112;-71
2021/08/14 11:51:21;;;;;;;19.60;17.40;;;12.00;99.90;;;;;;4974366;28;20023;-71
2021/08/14 11:54:01;;;;;;;19.02;17.33;;;11.90;99.90;;;;;;4974755;28;20030;-71
2021/08/14 11:56:30;;;;;;;19.58;17.55;;;11.90;99.90;;;;;;4973237;28;20113;-72
2021/08/14 11:58:57;;;;;;;18.48;16.70;;;11.90;99.90;;;;;;4973081;28;20034;-72
2021/08/14 12:01:25;;;;;;;19.08;17.40;;;11.80;99.90;;;;;;4974474;28;20070;-71
2021/08/14 12:03:57;;;;;;;18.90;17.30;;;11.80;99.90;;;;;;4973070;28;20054;-72
2021/08/14 12:06:28;;;;;;;19.85;17.85;;;11.80;99.90;;;;;;4971485;28;20042;-71
2021/08/14 12:08:57;;;;;;;19.00;17.38;;;11.80;99.90;;;;;;4972979;28;20035;-71
2021/08/14 12:11:27;;;;;;;19.83;18.05;;;11.80;99.90;;;;;;4974143;28;20081;-73
2021/08/14 12:14:14;;;;;;;18.80;17.30;;;11.70;99.90;;;;;;4972911;28;20075;-73
2021/08/14 12:16:45;;;;;;;18.92;17.23;;;11.70;99.90;;;;;;4974338;28;20026;-72
2021/08/14 12:19:20;;;;;;;17.98;16.20;;;11.70;99.90;;;;;;4956906;28;20442;-72
2021/08/14 12:21:50;;;;;;;18.27;16.48;;;11.70;99.90;;;;;;4974243;28;20027;-71
2021/08/14 12:24:18;;;;;;;17.60;16.00;;;11.60;99.90;;;;;;4974020;28;20126;-72
2021/08/14 12:26:45;;;;;;;17.10;15.50;;;11.60;99.90;;;;;;4974020;28;20018;-71
2021/08/14 12:29:15;;;;;;;15.30;14.00;;;11.60;99.90;;;;;;4974107;28;20022;-71
2021/08/14 12:31:54;;;;;;;16.10;14.80;;;11.60;99.90;;;;;;4974354;28;20035;-71
2021/08/14 12:34:33;;;;;;;17.63;15.85;;;11.50;99.90;;;;;;4972718;28;20031;-71
2021/08/14 12:37:10;;;;;;;18.27;16.77;;;11.50;99.90;;;;;;4973936;28;20022;-69
2021/08/14 12:39:56;;;;;;;18.70;17.00;;;11.50;99.90;;;;;;4973919;28;20464;-71
2021/08/14 12:42:27;;;;;;;18.55;17.05;;;11.50;99.90;;;;;;4974020;28;20022;-71
2021/08/14 12:44:55;;;;;;;20.50;18.38;;;11.50;99.90;;;;;;4972620;28;20035;-72
2021/08/14 12:47:34;;;;;;;21.38;19.52;;;11.50;99.90;;;;;;4972728;28;20022;-70
2021/08/14 12:50:17;;;;;;;21.25;19.33;;;11.50;99.90;;;;;;4973793;28;20027;-70
2021/08/14 12:52:56;;;;;;;23.60;21.33;;;11.50;99.90;;;;;;4972633;28;20122;-71
2021/08/14 12:55:30;;;;;;;26.48;24.05;;;11.50;99.90;;;;;;4972689;28;20673;-71
2021/08/14 12:58:02;;;;;;;26.55;23.92;;;11.40;99.90;;;;;;4973878;28;20053;-71
2021/08/14 13:00:30;;;;;;;31.00;27.67;;;11.40;99.90;;;;;;4973937;28;20504;-71
2021/08/14 13:02:58;;;;;;;37.50;33.90;;;11.40;99.90;;;;;;4972390;28;20027;-73
2021/08/14 13:05:25;;;;;;;44.35;39.65;;;11.40;99.90;;;;;;4973761;28;20435;-73
2021/08/14 13:07:52;;;;;;;49.85;42.08;;;11.40;99.90;;;;;;4973782;28;20019;-70
2021/08/14 13:10:21;;;;;;;69.00;61.40;;;11.40;99.90;;;;;;4973661;28;20027;-72
2021/08/14 13:12:59;;;;;;;76.20;67.85;;;11.40;99.90;;;;;;4972222;28;20395;-71
2021/08/14 13:15:27;;;;;;;94.45;81.60;;;11.40;99.90;;;;;;4973517;28;20134;-71
2021/08/14 13:17:56;;;;;;;105.55;89.05;;;11.30;99.90;;;;;;4973256;28;20030;-71
2021/08/14 13:20:26;;;;;;;139.02;114.85;;;11.40;99.90;;;;;;4977370;28;20027;-71
2021/08/14 13:22:54;;;;;;;135.95;121.10;;;11.40;99.90;;;;;;4976009;28;20475;-72